Washington, District of Columbia
Current Conditions -  °F | °C
As of 3:52 PM on Thursday 18 Dec 2014 (Local Time) from KDCA Reporting Station
Broken Clouds Broken Clouds  
Wind Chill:   Ceiling: 25000
Heat Index:   Visibility: 10mi
Dew Point: -6°   Wind: 13mph
Humidity: 47%   Direction: 330°NNW
Pressure: 30.12"   Gusts: NA
Location:  38.89°N, 77.03°W
Report Text: KDCA 182052Z 33011KT 10SM SCT038 BKN250 05/M06 A3012 RMK AO2 SLP197 T00501056 55006
Loading
Personal Weather Stations






























Interactive Weather Map New forecast layout! Learn more

10-Day Weather Forecast

Advertisements
Track Severe Weather on mobile